sensor_id;sensor_type;location;lat;lon;timestamp;pressure;altitude;pressure_sealevel;temperature;humidity
13734;BME280;43298;52.560;13.508;2023-07-31T00:00:35;100362.22;;;15.44;100.00
13734;BME280;43298;52.560;13.508;2023-07-31T00:03:00;100368.25;;;15.45;100.00
13734;BME280;43298;52.560;13.508;2023-07-31T00:05:26;100350.31;;;15.40;100.00
13734;BME280;43298;52.560;13.508;2023-07-31T00:07:52;100356.56;;;15.38;100.00
13734;BME280;43298;52.560;13.508;2023-07-31T00:10:19;100356.00;;;15.33;100.00
13734;BME280;43298;52.560;13.508;2023-07-31T00:12:46;100359.03;;;15.27;100.00
13734;BME280;43298;52.560;13.508;2023-07-31T00:15:14;100353.28;;;15.22;100.00
13734;BME280;43298;52.560;13.508;2023-07-31T00:17:40;100356.41;;;15.14;100.00
13734;BME280;43298;52.560;13.508;2023-07-31T00:20:06;100348.78;;;15.11;100.00
13734;BME280;43298;52.560;13.508;2023-07-31T00:22:32;100342.75;;;15.11;100.00
13734;BME280;43298;52.560;13.508;2023-07-31T00:24:58;100344.09;;;15.03;100.00
13734;BME280;43298;52.560;13.508;2023-07-31T00:27:25;100336.28;;;15.03;100.00
13734;BME280;43298;52.560;13.508;2023-07-31T00:29:51;100336.38;;;15.02;100.00
13734;BME280;43298;52.560;13.508;2023-07-31T00:32:17;100330.34;;;15.01;100.00
13734;BME280;43298;52.560;13.508;2023-07-31T00:34:42;100328.38;;;15.05;100.00
13734;BME280;43298;52.560;13.508;2023-07-31T00:37:08;100332.75;;;15.04;100.00
13734;BME280;43298;52.560;13.508;2023-07-31T00:39:35;100313.75;;;15.02;100.00
13734;BME280;43298;52.560;13.508;2023-07-31T00:42:01;100322.53;;;15.01;100.00
13734;BME280;43298;52.560;13.508;2023-07-31T00:44:27;100329.00;;;15.08;100.00
13734;BME280;43298;52.560;13.508;2023-07-31T00:46:54;100315.13;;;15.08;100.00
13734;BME280;43298;52.560;13.508;2023-07-31T00:49:21;100312.97;;;15.15;100.00
13734;BME280;43298;52.560;13.508;2023-07-31T00:51:47;100316.81;;;15.22;100.00
13734;BME280;43298;52.560;13.508;2023-07-31T00:54:13;100315.13;;;15.21;100.00
13734;BME280;43298;52.560;13.508;2023-07-31T00:56:41;100315.28;;;15.19;100.00
13734;BME280;43298;52.560;13.508;2023-07-31T00:59:07;100310.38;;;15.27;100.00
13734;BME280;43298;52.560;13.508;2023-07-31T01:01:33;100308.00;;;15.37;100.00
13734;BME280;43298;52.560;13.508;2023-07-31T01:03:59;100308.59;;;15.40;100.00
13734;BME280;43298;52.560;13.508;2023-07-31T01:06:44;100301.34;;;15.45;100.00
13734;BME280;43298;52.560;13.508;2023-07-31T01:12:09;100300.69;;;15.42;100.00
13734;BME280;43298;52.560;13.508;2023-07-31T01:14:38;100308.00;;;15.49;100.00
13734;BME280;43298;52.560;13.508;2023-07-31T01:17:04;100297.25;;;15.54;100.00
13734;BME280;43298;52.560;13.508;2023-07-31T01:19:30;100293.50;;;15.58;100.00
13734;BME280;43298;52.560;13.508;2023-07-31T01:24:55;100300.91;;;15.64;100.00
13734;BME280;43298;52.560;13.508;2023-07-31T01:27:30;100293.91;;;15.64;100.00
13734;BME280;43298;52.560;13.508;2023-07-31T01:30:11;100295.47;;;15.67;100.00
13734;BME280;43298;52.560;13.508;2023-07-31T01:32:42;100295.03;;;15.73;100.00
13734;BME280;43298;52.560;13.508;2023-07-31T01:35:08;100298.59;;;15.72;100.00
13734;BME280;43298;52.560;13.508;2023-07-31T01:37:34;100300.47;;;15.70;100.00
13734;BME280;43298;52.560;13.508;2023-07-31T01:40:00;100302.88;;;15.73;100.00
13734;BME280;43298;52.560;13.508;2023-07-31T01:42:26;100291.19;;;15.66;100.00
13734;BME280;43298;52.560;13.508;2023-07-31T01:44:51;100298.41;;;15.62;100.00
13734;BME280;43298;52.560;13.508;2023-07-31T01:47:17;100296.91;;;15.58;100.00
13734;BME280;43298;52.560;13.508;2023-07-31T01:49:43;100289.00;;;15.60;100.00
13734;BME280;43298;52.560;13.508;2023-07-31T01:52:09;100280.97;;;15.63;100.00
13734;BME280;43298;52.560;13.508;2023-07-31T01:54:34;100284.53;;;15.62;100.00
13734;BME280;43298;52.560;13.508;2023-07-31T01:57:02;100283.56;;;15.63;100.00
13734;BME280;43298;52.560;13.508;2023-07-31T01:59:28;100279.31;;;15.62;100.00
13734;BME280;43298;52.560;13.508;2023-07-31T02:01:54;100277.66;;;15.61;100.00
13734;BME280;43298;52.560;13.508;2023-07-31T02:04:20;100273.59;;;15.57;100.00
13734;BME280;43298;52.560;13.508;2023-07-31T02:06:46;100266.59;;;15.57;100.00
13734;BME280;43298;52.560;13.508;2023-07-31T02:09:12;100264.84;;;15.58;100.00
13734;BME280;43298;52.560;13.508;2023-07-31T02:11:37;100270.03;;;15.58;100.00
13734;BME280;43298;52.560;13.508;2023-07-31T02:14:03;100256.06;;;15.59;100.00
13734;BME280;43298;52.560;13.508;2023-07-31T02:16:29;100253.25;;;15.62;100.00
13734;BME280;43298;52.560;13.508;2023-07-31T02:18:55;100259.06;;;15.65;100.00
13734;BME280;43298;52.560;13.508;2023-07-31T02:21:21;100248.53;;;15.67;100.00
13734;BME280;43298;52.560;13.508;2023-07-31T02:23:46;100255.66;;;15.65;100.00
13734;BME280;43298;52.560;13.508;2023-07-31T02:26:12;100245.53;;;15.60;100.00
13734;BME280;43298;52.560;13.508;2023-07-31T02:28:38;100248.88;;;15.62;100.00
13734;BME280;43298;52.560;13.508;2023-07-31T02:31:04;100252.31;;;15.63;100.00
13734;BME280;43298;52.560;13.508;2023-07-31T02:33:30;100250.22;;;15.68;100.00
13734;BME280;43298;52.560;13.508;2023-07-31T02:35:55;100234.47;;;15.69;100.00
13734;BME280;43298;52.560;13.508;2023-07-31T02:38:21;100229.69;;;15.63;100.00
13734;BME280;43298;52.560;13.508;2023-07-31T02:40:47;100232.06;;;15.66;100.00
13734;BME280;43298;52.560;13.508;2023-07-31T02:43:14;100224.56;;;15.62;100.00
13734;BME280;43298;52.560;13.508;2023-07-31T02:45:39;100213.94;;;15.65;100.00
13734;BME280;43298;52.560;13.508;2023-07-31T02:48:05;100213.19;;;15.63;100.00
13734;BME280;43298;52.560;13.508;2023-07-31T02:50:31;100210.81;;;15.60;100.00
13734;BME280;43298;52.560;13.508;2023-07-31T02:52:57;100213.19;;;15.63;100.00
13734;BME280;43298;52.560;13.508;2023-07-31T02:55:23;100210.69;;;15.61;100.00
13734;BME280;43298;52.560;13.508;2023-07-31T02:57:49;100211.94;;;15.68;100.00
13734;BME280;43298;52.560;13.508;2023-07-31T03:00:15;100212.66;;;15.70;100.00
13734;BME280;43298;52.560;13.508;2023-07-31T03:02:41;100204.00;;;15.70;100.00
13734;BME280;43298;52.560;13.508;2023-07-31T03:05:07;100209.44;;;15.67;100.00
13734;BME280;43298;52.560;13.508;2023-07-31T03:07:33;100209.31;;;15.68;100.00
13734;BME280;43298;52.560;13.508;2023-07-31T03:09:59;100214.66;;;15.67;100.00
13734;BME280;43298;52.560;13.508;2023-07-31T03:12:25;100213.72;;;15.68;100.00
13734;BME280;43298;52.560;13.508;2023-07-31T03:14:50;100208.50;;;15.68;100.00
13734;BME280;43298;52.560;13.508;2023-07-31T03:17:16;100208.63;;;15.66;100.00
13734;BME280;43298;52.560;13.508;2023-07-31T03:19:42;100212.78;;;15.69;100.00
13734;BME280;43298;52.560;13.508;2023-07-31T03:22:08;100209.31;;;15.68;100.00
13734;BME280;43298;52.560;13.508;2023-07-31T03:24:33;100207.56;;;15.69;100.00
13734;BME280;43298;52.560;13.508;2023-07-31T03:26:59;100209.53;;;15.65;100.00
13734;BME280;43298;52.560;13.508;2023-07-31T03:29:25;100202.56;;;15.66;100.00
13734;BME280;43298;52.560;13.508;2023-07-31T03:31:51;100196.50;;;15.65;100.00
13734;BME280;43298;52.560;13.508;2023-07-31T03:34:17;100190.59;;;15.63;100.00
13734;BME280;43298;52.560;13.508;2023-07-31T03:36:43;100190.97;;;15.70;100.00
13734;BME280;43298;52.560;13.508;2023-07-31T03:39:08;100190.38;;;15.66;100.00
13734;BME280;43298;52.560;13.508;2023-07-31T03:41:34;100192.66;;;15.71;100.00
13734;BME280;43298;52.560;13.508;2023-07-31T03:44:00;100193.19;;;15.63;100.00
13734;BME280;43298;52.560;13.508;2023-07-31T03:46:26;100185.97;;;15.67;100.00
13734;BME280;43298;52.560;13.508;2023-07-31T03:48:52;100176.38;;;15.67;100.00
13734;BME280;43298;52.560;13.508;2023-07-31T03:51:18;100179.09;;;15.66;100.00
13734;BME280;43298;52.560;13.508;2023-07-31T03:53:44;100182.66;;;15.65;100.00
13734;BME280;43298;52.560;13.508;2023-07-31T03:56:10;100172.84;;;15.68;100.00
13734;BME280;43298;52.560;13.508;2023-07-31T03:58:36;100178.25;;;15.65;100.00
13734;BME280;43298;52.560;13.508;2023-07-31T04:01:03;100178.88;;;15.69;100.00
13734;BME280;43298;52.560;13.508;2023-07-31T04:03:30;100177.44;;;15.65;100.00
13734;BME280;43298;52.560;13.508;2023-07-31T04:05:56;100176.19;;;15.70;100.00
13734;BME280;43298;52.560;13.508;2023-07-31T04:08:25;100171.06;;;15.69;100.00
13734;BME280;43298;52.560;13.508;2023-07-31T04:10:51;100173.03;;;15.65;100.00
13734;BME280;43298;52.560;13.508;2023-07-31T04:13:16;100165.75;;;15.70;100.00
13734;BME280;43298;52.560;13.508;2023-07-31T04:15:42;100163.03;;;15.72;100.00
13734;BME280;43298;52.560;13.508;2023-07-31T04:18:08;100156.53;;;15.77;100.00
13734;BME280;43298;52.560;13.508;2023-07-31T04:20:34;100156.31;;;15.80;100.00
13734;BME280;43298;52.560;13.508;2023-07-31T04:23:00;100155.25;;;15.83;100.00
13734;BME280;43298;52.560;13.508;2023-07-31T04:25:25;100153.38;;;15.85;100.00
13734;BME280;43298;52.560;13.508;2023-07-31T04:27:51;100162.75;;;15.87;100.00
13734;BME280;43298;52.560;13.508;2023-07-31T04:30:17;100155.44;;;15.92;100.00
13734;BME280;43298;52.560;13.508;2023-07-31T04:32:43;100156.06;;;15.96;100.00
13734;BME280;43298;52.560;13.508;2023-07-31T04:35:09;100158.66;;;15.96;100.00
13734;BME280;43298;52.560;13.508;2023-07-31T04:37:34;100149.78;;;15.98;100.00
13734;BME280;43298;52.560;13.508;2023-07-31T04:40:00;100149.78;;;15.98;100.00
13734;BME280;43298;52.560;13.508;2023-07-31T04:42:26;100153.59;;;16.05;100.00
13734;BME280;43298;52.560;13.508;2023-07-31T04:44:52;100152.53;;;16.08;100.00
13734;BME280;43298;52.560;13.508;2023-07-31T04:47:19;100149.72;;;16.11;100.00
13734;BME280;43298;52.560;13.508;2023-07-31T04:49:45;100145.41;;;16.10;100.00
13734;BME280;43298;52.560;13.508;2023-07-31T04:52:11;100144.81;;;16.06;100.00
13734;BME280;43298;52.560;13.508;2023-07-31T04:54:36;100145.88;;;16.04;100.00
13734;BME280;43298;52.560;13.508;2023-07-31T04:57:02;100144.72;;;16.08;100.00
13734;BME280;43298;52.560;13.508;2023-07-31T04:59:28;100148.03;;;16.10;100.00
13734;BME280;43298;52.560;13.508;2023-07-31T05:01:54;100149.50;;;16.14;100.00
13734;BME280;43298;52.560;13.508;2023-07-31T05:04:20;100155.50;;;16.14;100.00
13734;BME280;43298;52.560;13.508;2023-07-31T05:06:46;100151.38;;;16.12;100.00
13734;BME280;43298;52.560;13.508;2023-07-31T05:09:11;100147.00;;;16.12;100.00
13734;BME280;43298;52.560;13.508;2023-07-31T05:11:38;100147.34;;;16.19;100.00
13734;BME280;43298;52.560;13.508;2023-07-31T05:14:05;100142.16;;;16.30;100.00
13734;BME280;43298;52.560;13.508;2023-07-31T05:16:31;100137.09;;;16.39;100.00
13734;BME280;43298;52.560;13.508;2023-07-31T05:18:57;100146.59;;;16.40;100.00
13734;BME280;43298;52.560;13.508;2023-07-31T05:21:23;100139.28;;;16.45;100.00
13734;BME280;43298;52.560;13.508;2023-07-31T05:23:49;100142.47;;;16.49;100.00
13734;BME280;43298;52.560;13.508;2023-07-31T05:26:15;100146.66;;;16.51;100.00
13734;BME280;43298;52.560;13.508;2023-07-31T05:28:41;100144.88;;;16.52;100.00
13734;BME280;43298;52.560;13.508;2023-07-31T05:31:07;100141.91;;;16.56;100.00
13734;BME280;43298;52.560;13.508;2023-07-31T05:33:33;100134.81;;;16.58;100.00
13734;BME280;43298;52.560;13.508;2023-07-31T05:35:59;100128.75;;;16.69;100.00
13734;BME280;43298;52.560;13.508;2023-07-31T05:38:24;100138.75;;;16.64;100.00
13734;BME280;43298;52.560;13.508;2023-07-31T05:40:50;100139.81;;;16.72;100.00
13734;BME280;43298;52.560;13.508;2023-07-31T05:43:16;100129.38;;;16.72;100.00
13734;BME280;43298;52.560;13.508;2023-07-31T05:45:43;100128.19;;;16.76;100.00
13734;BME280;43298;52.560;13.508;2023-07-31T05:48:09;100134.09;;;16.78;100.00
13734;BME280;43298;52.560;13.508;2023-07-31T05:50:34;100123.53;;;16.80;100.00
13734;BME280;43298;52.560;13.508;2023-07-31T05:53:00;100125.31;;;16.68;100.00
13734;BME280;43298;52.560;13.508;2023-07-31T05:55:26;100122.84;;;16.67;100.00
13734;BME280;43298;52.560;13.508;2023-07-31T05:57:53;100126.25;;;16.67;100.00
13734;BME280;43298;52.560;13.508;2023-07-31T06:00:19;100125.19;;;16.70;100.00
13734;BME280;43298;52.560;13.508;2023-07-31T06:02:47;100127.00;;;16.80;100.00
13734;BME280;43298;52.560;13.508;2023-07-31T06:05:13;100125.47;;;16.78;100.00
13734;BME280;43298;52.560;13.508;2023-07-31T06:07:39;100134.44;;;16.74;100.00
13734;BME280;43298;52.560;13.508;2023-07-31T06:10:06;100131.63;;;16.77;100.00
13734;BME280;43298;52.560;13.508;2023-07-31T06:12:32;100133.28;;;16.78;100.00
13734;BME280;43298;52.560;13.508;2023-07-31T06:14:58;100123.09;;;16.86;100.00
13734;BME280;43298;52.560;13.508;2023-07-31T06:17:24;100124.97;;;16.84;100.00
13734;BME280;43298;52.560;13.508;2023-07-31T06:19:51;100134.50;;;16.85;100.00
13734;BME280;43298;52.560;13.508;2023-07-31T06:22:17;100112.41;;;16.89;100.00
13734;BME280;43298;52.560;13.508;2023-07-31T06:24:44;100122.63;;;16.92;100.00
13734;BME280;43298;52.560;13.508;2023-07-31T06:27:11;100120.81;;;16.92;100.00
13734;BME280;43298;52.560;13.508;2023-07-31T06:29:37;100124.28;;;16.93;100.00
13734;BME280;43298;52.560;13.508;2023-07-31T06:32:03;100115.81;;;16.89;100.00
13734;BME280;43298;52.560;13.508;2023-07-31T06:34:29;100126.41;;;16.88;100.00
13734;BME280;43298;52.560;13.508;2023-07-31T06:36:56;100129.00;;;16.77;100.00
13734;BME280;43298;52.560;13.508;2023-07-31T06:39:22;100118.22;;;16.81;100.00
13734;BME280;43298;52.560;13.508;2023-07-31T06:41:48;100127.84;;;16.92;100.00
13734;BME280;43298;52.560;13.508;2023-07-31T06:44:14;100118.94;;;17.05;100.00
13734;BME280;43298;52.560;13.508;2023-07-31T06:46:40;100114.88;;;17.23;100.00
13734;BME280;43298;52.560;13.508;2023-07-31T06:49:06;100118.31;;;17.24;100.00
13734;BME280;43298;52.560;13.508;2023-07-31T06:51:31;100118.91;;;17.27;100.00
13734;BME280;43298;52.560;13.508;2023-07-31T06:53:58;100117.81;;;17.41;100.00
13734;BME280;43298;52.560;13.508;2023-07-31T06:56:24;100108.69;;;17.24;100.00
13734;BME280;43298;52.560;13.508;2023-07-31T06:58:50;100111.91;;;17.17;100.00
13734;BME280;43298;52.560;13.508;2023-07-31T07:01:15;100111.78;;;17.07;100.00
13734;BME280;43298;52.560;13.508;2023-07-31T07:03:41;100103.50;;;17.02;100.00
13734;BME280;43298;52.560;13.508;2023-07-31T07:06:07;100114.41;;;17.07;100.00
13734;BME280;43298;52.560;13.508;2023-07-31T07:08:33;100111.53;;;17.21;100.00
13734;BME280;43298;52.560;13.508;2023-07-31T07:10:58;100113.19;;;17.33;100.00
13734;BME280;43298;52.560;13.508;2023-07-31T07:13:24;100111.50;;;17.32;100.00
13734;BME280;43298;52.560;13.508;2023-07-31T07:15:51;100106.53;;;17.18;100.00
13734;BME280;43298;52.560;13.508;2023-07-31T07:18:18;100115.25;;;17.08;100.00
13734;BME280;43298;52.560;13.508;2023-07-31T07:20:51;100119.88;;;17.04;100.00
13734;BME280;43298;52.560;13.508;2023-07-31T07:23:18;100116.31;;;17.05;100.00
13734;BME280;43298;52.560;13.508;2023-07-31T07:25:46;100123.31;;;17.05;100.00
13734;BME280;43298;52.560;13.508;2023-07-31T07:28:12;100122.50;;;17.04;100.00
13734;BME280;43298;52.560;13.508;2023-07-31T07:30:38;100125.47;;;17.11;100.00
13734;BME280;43298;52.560;13.508;2023-07-31T07:33:03;100118.44;;;17.22;100.00
13734;BME280;43298;52.560;13.508;2023-07-31T07:35:29;100118.78;;;17.29;100.00
13734;BME280;43298;52.560;13.508;2023-07-31T07:37:55;100115.19;;;17.52;100.00
13734;BME280;43298;52.560;13.508;2023-07-31T07:40:22;100109.56;;;17.67;100.00
13734;BME280;43298;52.560;13.508;2023-07-31T07:42:48;100101.97;;;17.64;100.00
13734;BME280;43298;52.560;13.508;2023-07-31T07:45:14;100109.81;;;17.75;100.00
13734;BME280;43298;52.560;13.508;2023-07-31T07:47:41;100104.53;;;17.87;100.00
13734;BME280;43298;52.560;13.508;2023-07-31T07:50:07;100109.88;;;17.85;100.00
13734;BME280;43298;52.560;13.508;2023-07-31T07:52:33;100103.69;;;17.86;100.00
13734;BME280;43298;52.560;13.508;2023-07-31T07:54:59;100102.19;;;18.04;100.00
13734;BME280;43298;52.560;13.508;2023-07-31T07:57:26;100108.94;;;18.07;100.00
13734;BME280;43298;52.560;13.508;2023-07-31T07:59:52;100097.78;;;18.25;100.00
13734;BME280;43298;52.560;13.508;2023-07-31T08:02:18;100094.44;;;18.23;100.00
13734;BME280;43298;52.560;13.508;2023-07-31T08:04:44;100099.88;;;18.11;100.00
13734;BME280;43298;52.560;13.508;2023-07-31T08:07:13;100101.94;;;18.07;100.00
13734;BME280;43298;52.560;13.508;2023-07-31T08:09:39;100095.78;;;18.18;100.00
13734;BME280;43298;52.560;13.508;2023-07-31T08:12:06;100104.47;;;18.18;100.00
13734;BME280;43298;52.560;13.508;2023-07-31T08:14:32;100105.94;;;18.11;100.00
13734;BME280;43298;52.560;13.508;2023-07-31T08:16:58;100099.63;;;18.14;100.00
13734;BME280;43298;52.560;13.508;2023-07-31T08:19:24;100089.50;;;18.20;100.00
13734;BME280;43298;52.560;13.508;2023-07-31T08:21:50;100087.91;;;18.49;100.00
13734;BME280;43298;52.560;13.508;2023-07-31T08:24:16;100088.50;;;18.62;100.00
13734;BME280;43298;52.560;13.508;2023-07-31T08:26:42;100079.16;;;18.39;100.00
13734;BME280;43298;52.560;13.508;2023-07-31T08:29:08;100095.72;;;18.08;100.00
13734;BME280;43298;52.560;13.508;2023-07-31T08:31:34;100088.56;;;17.89;100.00
13734;BME280;43298;52.560;13.508;2023-07-31T08:34:00;100090.06;;;17.71;100.00
13734;BME280;43298;52.560;13.508;2023-07-31T08:36:26;100091.38;;;17.66;100.00
13734;BME280;43298;52.560;13.508;2023-07-31T08:38:52;100087.16;;;17.54;100.00
13734;BME280;43298;52.560;13.508;2023-07-31T08:41:18;100082.13;;;17.62;100.00
13734;BME280;43298;52.560;13.508;2023-07-31T08:43:47;100087.72;;;17.68;100.00
13734;BME280;43298;52.560;13.508;2023-07-31T08:46:13;100080.22;;;17.64;100.00
13734;BME280;43298;52.560;13.508;2023-07-31T08:48:44;100084.00;;;17.71;100.00
13734;BME280;43298;52.560;13.508;2023-07-31T08:51:11;100080.06;;;17.76;100.00
13734;BME280;43298;52.560;13.508;2023-07-31T08:53:37;100080.59;;;17.91;100.00
13734;BME280;43298;52.560;13.508;2023-07-31T08:56:03;100083.47;;;18.09;100.00
13734;BME280;43298;52.560;13.508;2023-07-31T08:58:32;100082.25;;;18.33;100.00
13734;BME280;43298;52.560;13.508;2023-07-31T09:01:03;100084.44;;;18.28;100.00
13734;BME280;43298;52.560;13.508;2023-07-31T09:03:33;100085.13;;;18.30;100.00
13734;BME280;43298;52.560;13.508;2023-07-31T09:06:03;100085.00;;;18.32;100.00
13734;BME280;43298;52.560;13.508;2023-07-31T09:08:32;100090.50;;;18.29;100.00
13734;BME280;43298;52.560;13.508;2023-07-31T09:11:02;100084.47;;;18.49;100.00
13734;BME280;43298;52.560;13.508;2023-07-31T09:13:32;100088.09;;;18.57;100.00
13734;BME280;43298;52.560;13.508;2023-07-31T09:15:58;100085.03;;;18.52;100.00
13734;BME280;43298;52.560;13.508;2023-07-31T09:18:24;100074.72;;;18.90;100.00
13734;BME280;43298;52.560;13.508;2023-07-31T09:21:06;100071.56;;;18.66;100.00
13734;BME280;43298;52.560;13.508;2023-07-31T09:23:47;100077.28;;;18.71;100.00
13734;BME280;43298;52.560;13.508;2023-07-31T09:26:36;100074.41;;;18.74;100.00
13734;BME280;43298;52.560;13.508;2023-07-31T09:29:07;100080.78;;;18.81;100.00
13734;BME280;43298;52.560;13.508;2023-07-31T09:31:43;100074.38;;;19.14;100.00
13734;BME280;43298;52.560;13.508;2023-07-31T09:34:11;100074.94;;;18.78;100.00
13734;BME280;43298;52.560;13.508;2023-07-31T09:36:49;100073.22;;;18.58;100.00
13734;BME280;43298;52.560;13.508;2023-07-31T09:39:17;100086.53;;;18.45;100.00
13734;BME280;43298;52.560;13.508;2023-07-31T09:41:55;100077.22;;;18.21;100.00
13734;BME280;43298;52.560;13.508;2023-07-31T09:44:21;100086.41;;;17.95;100.00
13734;BME280;43298;52.560;13.508;2023-07-31T09:46:48;100084.25;;;17.68;100.00
13734;BME280;43298;52.560;13.508;2023-07-31T09:49:14;100082.00;;;17.63;100.00
13734;BME280;43298;52.560;13.508;2023-07-31T09:51:42;100077.03;;;17.60;100.00
13734;BME280;43298;52.560;13.508;2023-07-31T09:54:13;100075.25;;;17.61;100.00
13734;BME280;43298;52.560;13.508;2023-07-31T09:56:48;100076.09;;;17.61;100.00
13734;BME280;43298;52.560;13.508;2023-07-31T09:59:23;100071.19;;;17.68;100.00
13734;BME280;43298;52.560;13.508;2023-07-31T10:01:49;100066.22;;;17.85;100.00
13734;BME280;43298;52.560;13.508;2023-07-31T10:04:16;100067.25;;;17.94;100.00
13734;BME280;43298;52.560;13.508;2023-07-31T10:06:45;100064.00;;;18.02;100.00
13734;BME280;43298;52.560;13.508;2023-07-31T10:09:16;100053.53;;;17.81;100.00
13734;BME280;43298;52.560;13.508;2023-07-31T10:11:53;100062.66;;;17.87;100.00
13734;BME280;43298;52.560;13.508;2023-07-31T10:14:22;100058.19;;;17.98;100.00
13734;BME280;43298;52.560;13.508;2023-07-31T10:16:49;100053.59;;;18.11;100.00
13734;BME280;43298;52.560;13.508;2023-07-31T10:19:17;100043.75;;;18.35;100.00
13734;BME280;43298;52.560;13.508;2023-07-31T10:21:44;100048.69;;;18.59;100.00
13734;BME280;43298;52.560;13.508;2023-07-31T10:24:11;100049.69;;;18.67;100.00
13734;BME280;43298;52.560;13.508;2023-07-31T10:26:38;100042.34;;;18.61;100.00
13734;BME280;43298;52.560;13.508;2023-07-31T10:29:05;100047.16;;;18.56;100.00
13734;BME280;43298;52.560;13.508;2023-07-31T10:31:33;100039.78;;;18.41;100.00
13734;BME280;43298;52.560;13.508;2023-07-31T10:34:00;100043.75;;;18.35;100.00
13734;BME280;43298;52.560;13.508;2023-07-31T10:36:26;100048.00;;;18.36;100.00
13734;BME280;43298;52.560;13.508;2023-07-31T10:38:52;100058.09;;;18.20;100.00
13734;BME280;43298;52.560;13.508;2023-07-31T10:41:31;100053.56;;;18.02;100.00
13734;BME280;43298;52.560;13.508;2023-07-31T10:44:01;100053.06;;;18.08;100.00
13734;BME280;43298;52.560;13.508;2023-07-31T10:46:28;100048.19;;;18.03;100.00
13734;BME280;43298;52.560;13.508;2023-07-31T10:49:00;100040.78;;;18.08;100.00
13734;BME280;43298;52.560;13.508;2023-07-31T10:51:33;100033.09;;;18.16;100.00
13734;BME280;43298;52.560;13.508;2023-07-31T10:54:15;100029.06;;;18.53;100.00
13734;BME280;43298;52.560;13.508;2023-07-31T10:56:45;100013.78;;;18.88;100.00
13734;BME280;43298;52.560;13.508;2023-07-31T10:59:12;100014.31;;;19.31;100.00
13734;BME280;43298;52.560;13.508;2023-07-31T11:01:56;100010.28;;;19.65;100.00
13734;BME280;43298;52.560;13.508;2023-07-31T11:04:29;99994.38;;;19.95;100.00
13734;BME280;43298;52.560;13.508;2023-07-31T11:06:58;99985.97;;;20.11;100.00
13734;BME280;43298;52.560;13.508;2023-07-31T11:09:29;99986.13;;;20.36;100.00
13734;BME280;43298;52.560;13.508;2023-07-31T11:11:56;99991.09;;;20.39;100.00
13734;BME280;43298;52.560;13.508;2023-07-31T11:14:22;99985.28;;;20.45;100.00
13734;BME280;43298;52.560;13.508;2023-07-31T11:16:51;99996.88;;;20.52;100.00
13734;BME280;43298;52.560;13.508;2023-07-31T11:19:24;99999.16;;;20.28;100.00
13734;BME280;43298;52.560;13.508;2023-07-31T11:21:54;100010.25;;;20.03;100.00
13734;BME280;43298;52.560;13.508;2023-07-31T11:24:21;99996.41;;;20.30;100.00
13734;BME280;43298;52.560;13.508;2023-07-31T11:26:51;99993.34;;;20.34;100.00
13734;BME280;43298;52.560;13.508;2023-07-31T11:29:18;99991.75;;;20.51;100.00
13734;BME280;43298;52.560;13.508;2023-07-31T11:31:45;99995.22;;;20.79;100.00
13734;BME280;43298;52.560;13.508;2023-07-31T11:34:12;99987.28;;;21.15;100.00
13734;BME280;43298;52.560;13.508;2023-07-31T11:36:37;99992.06;;;21.02;100.00
13734;BME280;43298;52.560;13.508;2023-07-31T11:39:09;99995.59;;;20.93;100.00
13734;BME280;43298;52.560;13.508;2023-07-31T11:41:35;99994.72;;;20.65;100.00
13734;BME280;43298;52.560;13.508;2023-07-31T11:44:01;99998.81;;;20.50;100.00
13734;BME280;43298;52.560;13.508;2023-07-31T11:46:30;100004.94;;;20.41;100.00
13734;BME280;43298;52.560;13.508;2023-07-31T11:49:00;100004.41;;;20.28;100.00
13734;BME280;43298;52.560;13.508;2023-07-31T11:51:26;99996.69;;;20.27;100.00
13734;BME280;43298;52.560;13.508;2023-07-31T11:53:58;99998.63;;;20.25;100.00
13734;BME280;43298;52.560;13.508;2023-07-31T11:56:24;100000.78;;;20.48;100.00
13734;BME280;43298;52.560;13.508;2023-07-31T11:58:58;100001.38;;;20.60;100.00
13734;BME280;43298;52.560;13.508;2023-07-31T12:01:26;99998.88;;;20.68;100.00
13734;BME280;43298;52.560;13.508;2023-07-31T12:03:53;99998.03;;;20.67;100.00
13734;BME280;43298;52.560;13.508;2023-07-31T12:06:19;100000.81;;;20.66;100.00
13734;BME280;43298;52.560;13.508;2023-07-31T12:08:48;99998.13;;;20.76;100.00
13734;BME280;43298;52.560;13.508;2023-07-31T12:11:14;99999.84;;;20.67;100.00
13734;BME280;43298;52.560;13.508;2023-07-31T12:13:40;100000.66;;;20.67;100.00
13734;BME280;43298;52.560;13.508;2023-07-31T12:16:06;99997.06;;;20.68;100.00
13734;BME280;43298;52.560;13.508;2023-07-31T12:18:37;99981.69;;;20.74;100.00
13734;BME280;43298;52.560;13.508;2023-07-31T12:21:08;99986.56;;;20.68;100.00
13734;BME280;43298;52.560;13.508;2023-07-31T12:23:37;99983.00;;;20.60;100.00
13734;BME280;43298;52.560;13.508;2023-07-31T12:28:47;99978.13;;;21.02;100.00
13734;BME280;43298;52.560;13.508;2023-07-31T12:31:18;99966.47;;;21.22;100.00
13734;BME280;43298;52.560;13.508;2023-07-31T12:33:46;99975.47;;;21.37;100.00
13734;BME280;43298;52.560;13.508;2023-07-31T12:36:21;99971.44;;;21.25;100.00
13734;BME280;43298;52.560;13.508;2023-07-31T12:38:49;99967.59;;;21.02;100.00